Time;durP1;ratioP1;P1;durP2;ratioP2;P2;SDS_P1;SDS_P2;PMS_P1;PMS_P2;Temp;Humidity;BMP_temperature;BMP_pressure;BME280_temperature;BME280_humidity;BME280_pressure;Samples;Min_cycle;Max_cycle;Signal;HPM_P1;HPM_P2
2022/04/28 00:00:24;;;;;;;;;33.25;25.00;;;;;12.31;55.21;101583.41;5077487;27;45532;-79
2022/04/28 00:02:51;;;;;;;;;21.25;13.00;;;;;12.27;55.32;101580.78;5076513;27;45324;-79
2022/04/28 00:05:16;;;;;;;;;25.50;19.50;;;;;12.25;55.38;101579.03;5077172;27;46178;-79
2022/04/28 00:07:42;;;;;;;;;31.00;26.00;;;;;12.18;55.29;101577.38;5076776;27;45586;-79
2022/04/28 00:10:10;;;;;;;;;26.00;21.00;;;;;12.19;55.21;101580.00;5058752;27;45490;-78
2022/04/28 00:12:37;;;;;;;;;21.00;21.00;;;;;12.14;55.45;101579.16;5060579;28;45392;-79
2022/04/28 00:15:03;;;;;;;;;26.00;24.75;;;;;12.15;55.59;101578.28;5078179;27;45451;-78
2022/04/28 00:17:29;;;;;;;;;25.75;21.00;;;;;12.12;55.29;101583.63;5071645;27;45459;-78
2022/04/28 00:19:54;;;;;;;;;32.50;27.75;;;;;12.10;55.57;101588.06;5039609;28;45813;-78
2022/04/28 00:22:21;;;;;;;;;32.75;22.50;;;;;12.04;55.74;101581.03;5045109;28;45464;-79
2022/04/28 00:24:47;;;;;;;;;23.50;22.75;;;;;12.02;55.72;101579.28;5081996;27;45560;-79
2022/04/28 00:27:12;;;;;;;;;26.75;22.25;;;;;11.99;55.71;101574.03;5078306;28;45468;-79
2022/04/28 00:29:37;;;;;;;;;27.50;22.50;;;;;11.92;55.32;101578.47;5077033;28;45555;-79
2022/04/28 00:32:03;;;;;;;;;37.25;27.25;;;;;11.90;55.66;101570.56;5076804;27;45338;-79
2022/04/28 00:34:28;;;;;;;;;35.00;25.50;;;;;11.81;55.73;101570.66;5076036;28;45412;-79
2022/04/28 00:36:54;;;;;;;;;28.50;24.50;;;;;11.80;55.92;101568.00;5076666;27;45445;-79
2022/04/28 00:39:19;;;;;;;;;30.00;26.25;;;;;11.70;55.92;101562.78;5077925;28;45469;-79
2022/04/28 00:41:45;;;;;;;;;24.50;19.50;;;;;11.65;56.08;101567.25;5076901;27;45508;-79
2022/04/28 00:44:11;;;;;;;;;28.25;25.25;;;;;11.62;56.21;101569.06;5075342;28;46292;-79
2022/04/28 00:46:37;;;;;;;;;30.00;26.00;;;;;11.62;56.51;101575.22;5076816;28;45486;-78
2022/04/28 00:51:48;;;;;;;;;27.25;24.00;;;;;11.51;56.38;101567.34;5076555;28;45417;-78
2022/04/28 00:54:13;;;;;;;;;24.00;19.00;;;;;11.46;56.19;101568.28;5080788;27;46459;-79
2022/04/28 00:56:39;;;;;;;;;31.75;23.75;;;;;11.39;56.59;101562.16;5077761;28;45393;-81
2022/04/28 00:59:06;;;;;;;;;29.50;25.00;;;;;11.34;56.84;101554.25;5076357;28;45405;-79
2022/04/28 01:01:32;;;;;;;;;30.00;24.75;;;;;11.34;56.76;101553.38;5076065;27;45377;-80
2022/04/28 01:03:58;;;;;;;;;28.25;25.50;;;;;11.32;56.95;101557.81;5074589;28;45384;-79
2022/04/28 01:06:24;;;;;;;;;35.75;27.75;;;;;11.32;56.64;101568.38;5077151;28;45453;-79
2022/04/28 01:08:50;;;;;;;;;29.00;23.00;;;;;11.29;57.09;101573.72;5077319;27;45374;-79
2022/04/28 01:11:19;;;;;;;;;21.75;21.75;;;;;11.26;57.21;101568.44;5075641;28;45457;-77
2022/04/28 01:13:45;;;;;;;;;24.00;21.25;;;;;11.17;57.66;101567.63;5074896;28;46259;-77
2022/04/28 01:16:13;;;;;;;;;24.50;22.25;;;;;11.17;57.32;101572.00;5055216;28;45429;-77
2022/04/28 01:18:40;;;;;;;;;26.75;23.00;;;;;11.12;57.42;101571.19;5069624;28;45432;-78
2022/04/28 01:21:06;;;;;;;;;25.00;22.75;;;;;11.12;57.37;101564.13;5075586;28;45473;-77
2022/04/28 01:23:33;;;;;;;;;25.50;24.25;;;;;11.10;57.53;101560.59;5076970;27;45414;-75
2022/04/28 01:26:19;;;;;;;;;26.50;23.75;;;;;11.02;57.82;101557.13;5112500;27;45363;-75
2022/04/28 01:28:44;;;;;;;;;32.50;25.00;;;;;10.92;57.87;101545.72;5091217;27;45443;-76
2022/04/28 01:31:09;;;;;;;;;30.00;22.00;;;;;10.93;57.97;101570.41;5091632;27;45412;-75
2022/04/28 01:33:35;;;;;;;;;25.00;22.50;;;;;10.94;58.02;101556.28;5091213;27;45647;-76
2022/04/28 01:36:00;;;;;;;;;30.00;24.75;;;;;10.80;58.02;101544.03;5089854;27;46435;-76
2022/04/28 01:38:26;;;;;;;;;28.75;21.50;;;;;10.89;58.31;101560.75;5091836;27;45483;-75
2022/04/28 01:40:51;;;;;;;;;27.00;24.50;;;;;10.88;58.06;101561.63;5090612;27;45314;-76
2022/04/28 01:43:17;;;;;;;;;34.00;24.00;;;;;10.86;58.29;101556.34;5091504;27;45454;-76
2022/04/28 01:45:42;;;;;;;;;28.50;25.00;;;;;10.77;58.14;101557.25;5090817;27;46148;-75
2022/04/28 01:48:09;;;;;;;;;27.25;19.50;;;;;10.74;58.47;101562.56;5091090;27;45393;-76
2022/04/28 01:50:34;;;;;;;;;32.00;25.00;;;;;10.71;58.58;101559.06;5091479;27;45414;-75
2022/04/28 01:55:44;;;;;;;;;27.75;21.50;;;;;10.65;58.76;101559.97;5092184;27;45854;-76
2022/04/28 01:58:09;;;;;;;;;25.75;21.00;;;;;10.58;59.13;101561.78;5091567;27;45429;-76
2022/04/28 02:00:35;;;;;;;;;29.75;26.75;;;;;10.63;59.16;101564.41;5091418;27;45496;-75
2022/04/28 02:03:00;;;;;;;;;27.00;18.25;;;;;10.57;58.83;101569.72;5090872;27;45597;-76
2022/04/28 02:05:26;;;;;;;;;26.00;23.00;;;;;10.52;59.09;101571.47;5090802;27;45369;-76
2022/04/28 02:07:51;;;;;;;;;22.25;18.25;;;;;10.47;59.33;101556.50;5090702;27;45583;-76
2022/04/28 02:10:17;;;;;;;;;27.00;24.25;;;;;10.49;59.51;101565.34;5091075;27;45460;-76
2022/04/28 02:12:43;;;;;;;;;25.00;22.00;;;;;10.42;59.44;101568.88;5090942;27;45373;-76
2022/04/28 02:15:09;;;;;;;;;24.50;19.50;;;;;10.42;59.62;101568.88;5106828;27;46890;-76
2022/04/28 02:17:38;;;;;;;;;25.25;23.50;;;;;10.39;59.65;101575.94;5090999;27;45572;-75
2022/04/28 02:20:09;;;;;;;;;24.50;21.50;;;;;10.36;59.74;101570.66;5091317;27;45435;-77
2022/04/28 02:22:36;;;;;;;;;25.75;23.75;;;;;10.29;59.99;101570.66;5091104;27;45476;-77
2022/04/28 02:25:01;;;;;;;;;33.00;23.00;;;;;10.33;59.70;101587.41;5090986;27;45477;-75
2022/04/28 02:27:27;;;;;;;;;27.75;21.00;;;;;10.30;60.17;101576.81;5090817;27;45457;-76
2022/04/28 02:29:53;;;;;;;;;18.00;15.50;;;;;10.29;60.21;101572.41;5091876;27;45554;-77
2022/04/28 02:32:18;;;;;;;;;26.75;17.50;;;;;10.27;60.22;101574.19;5090576;27;45592;-76
2022/04/28 02:34:43;;;;;;;;;24.25;16.50;;;;;10.22;60.45;101575.94;5090756;27;45381;-76
2022/04/28 02:37:09;;;;;;;;;24.75;22.00;;;;;10.18;60.25;101588.28;5079454;27;45319;-76
2022/04/28 02:39:35;;;;;;;;;21.25;20.75;;;;;10.10;60.35;101575.09;5076430;27;45331;-76
2022/04/28 02:42:00;;;;;;;;;27.00;22.00;;;;;10.12;60.75;101588.31;5075426;28;45536;-76
2022/04/28 02:44:26;;;;;;;;;27.25;24.00;;;;;10.09;60.93;101583.91;5076350;27;47153;-77
2022/04/28 02:46:51;;;;;;;;;19.25;16.00;;;;;10.05;60.90;101584.81;5076961;27;45458;-75
2022/04/28 02:49:17;;;;;;;;;21.50;21.00;;;;;10.01;60.86;101579.53;5076401;27;45373;-76
2022/04/28 02:51:42;;;;;;;;;31.00;23.00;;;;;10.01;61.13;101585.69;5077277;27;45486;-77
2022/04/28 02:54:09;;;;;;;;;20.25;14.00;;;;;9.95;61.32;101580.41;5075789;28;47933;-75
2022/04/28 02:56:35;;;;;;;;;24.00;18.25;;;;;9.92;61.10;101585.69;5077640;27;45433;-77
2022/04/28 02:59:00;;;;;;;;;23.50;16.00;;;;;9.89;61.48;101575.13;5078215;27;45442;-77
2022/04/28 03:01:27;;;;;;;;;22.00;21.25;;;;;9.85;61.44;101594.50;5077246;27;45619;-76
2022/04/28 03:03:53;;;;;;;;;23.00;17.75;;;;;9.82;61.71;101594.50;5075836;28;46199;-77
2022/04/28 03:11:48;;;;;;;;;22.00;17.50;;;;;9.68;61.99;101592.75;5076300;28;45394;-77
2022/04/28 03:14:15;;;;;;;;;19.50;14.00;;;;;9.60;61.86;101589.25;5076621;27;46630;-77
2022/04/28 03:16:41;;;;;;;;;24.75;20.00;;;;;9.62;62.54;101591.88;5076314;27;45369;-77
2022/04/28 03:19:07;;;;;;;;;23.75;16.50;;;;;9.61;62.33;101596.28;5076345;28;45616;-76
2022/04/28 03:21:32;;;;;;;;;18.50;14.00;;;;;9.59;62.41;101598.91;5076251;27;45532;-75
2022/04/28 03:23:58;;;;;;;;;20.75;12.75;;;;;9.53;62.71;101596.25;5076638;27;45361;-76
2022/04/28 03:26:24;;;;;;;;;22.00;21.00;;;;;9.49;62.81;101594.50;5077373;27;45389;-75
2022/04/28 03:28:49;;;;;;;;;27.00;17.50;;;;;9.47;62.38;101608.56;5077605;27;45386;-77
2022/04/28 03:31:15;;;;;;;;;20.50;20.00;;;;;9.42;62.55;101601.53;5066742;27;45420;-77
2022/04/28 03:33:41;;;;;;;;;29.75;21.75;;;;;9.45;62.71;101611.22;5055988;28;46084;-77
2022/04/28 03:36:50;;;;;;;;;26.00;17.50;;;;;9.43;63.26;101603.31;5055904;28;45533;-77
2022/04/28 03:38:51;;;;;;;;;30.25;27.25;;;;;9.41;62.52;101599.78;5054804;28;45335;-76
2022/04/28 03:41:17;;;;;;;;;27.50;18.50;;;;;9.43;62.94;101603.31;5056019;27;45540;-77
2022/04/28 03:43:44;;;;;;;;;20.00;19.00;;;;;9.42;62.62;101606.81;5075573;28;46261;-77
2022/04/28 03:46:10;;;;;;;;;20.75;19.75;;;;;9.36;63.06;101598.88;5075918;27;45420;-77
2022/04/28 03:48:37;;;;;;;;;21.75;20.00;;;;;9.34;63.48;101608.56;5075222;27;45532;-77
2022/04/28 03:51:03;;;;;;;;;19.50;17.50;;;;;9.29;63.46;101605.03;5076250;27;45337;-78
2022/04/28 03:53:28;;;;;;;;;27.75;20.00;;;;;9.27;63.05;101604.16;5075761;27;45544;-78
2022/04/28 03:55:54;;;;;;;;;16.25;10.00;;;;;9.24;63.54;101601.50;5076358;27;45449;-76
2022/04/28 03:58:19;;;;;;;;;24.00;20.00;;;;;9.25;63.68;101608.56;5077815;27;45442;-77
2022/04/28 04:00:48;;;;;;;;;27.75;22.00;;;;;9.24;64.06;101612.06;5077284;27;45533;-77
2022/04/28 04:03:14;;;;;;;;;18.75;16.50;;;;;9.23;63.36;101610.28;5075917;27;46675;-76
2022/04/28 04:05:39;;;;;;;;;25.00;20.00;;;;;9.20;64.10;101610.28;5075598;27;45481;-77
2022/04/28 04:08:05;;;;;;;;;25.50;23.00;;;;;9.19;64.12;101608.53;5075436;27;45404;-78
2022/04/28 04:10:30;;;;;;;;;25.00;19.00;;;;;9.20;63.38;101612.94;5075519;27;45418;-75
2022/04/28 04:12:55;;;;;;;;;23.00;21.50;;;;;9.18;64.22;101617.31;5075416;27;45453;-76
2022/04/28 04:15:21;;;;;;;;;22.25;22.00;;;;;9.13;63.77;101616.44;5074400;28;45466;-77
2022/04/28 04:17:46;;;;;;;;;22.50;18.75;;;;;9.17;64.22;101618.19;5075504;27;45619;-78
2022/04/28 04:20:12;;;;;;;;;22.75;19.75;;;;;9.18;63.66;101625.25;5075443;27;45346;-76
2022/04/28 04:22:37;;;;;;;;;26.50;26.00;;;;;9.12;64.40;101623.47;5075393;28;45420;-77
2022/04/28 04:25:04;;;;;;;;;23.50;18.75;;;;;9.13;64.57;101625.22;5074974;28;45402;-76
2022/04/28 04:27:29;;;;;;;;;14.75;8.25;;;;;9.13;64.16;101632.28;5076777;27;45420;-76
2022/04/28 04:29:54;;;;;;;;;22.25;19.00;;;;;9.03;64.78;101610.25;5076076;28;45405;-77
2022/04/28 04:32:26;;;;;;;;;26.50;23.50;;;;;9.11;64.15;101634.91;5075095;27;46186;-76
2022/04/28 04:34:54;;;;;;;;;26.00;21.00;;;;;9.10;65.06;101635.78;5075156;27;45389;-76
2022/04/28 04:37:21;;;;;;;;;19.50;16.25;;;;;9.05;64.43;101626.97;5075256;27;45489;-76
2022/04/28 04:39:47;;;;;;;;;24.75;21.50;;;;;9.09;64.67;101626.09;5075486;28;45551;-77
2022/04/28 04:42:12;;;;;;;;;29.50;23.50;;;;;9.12;64.94;101634.00;5074855;27;46957;-76
2022/04/28 04:44:37;;;;;;;;;31.25;21.75;;;;;9.22;64.34;101640.22;5075313;27;45411;-76
2022/04/28 04:47:03;;;;;;;;;33.00;25.00;;;;;9.34;64.35;101634.94;5074873;27;45528;-75
2022/04/28 04:49:29;;;;;;;;;21.50;20.00;;;;;9.51;63.99;101639.38;5075042;27;45704;-76
2022/04/28 04:51:55;;;;;;;;;31.25;26.50;;;;;9.68;63.00;101634.97;5074687;27;46332;-80
2022/04/28 04:54:20;;;;;;;;;27.75;21.75;;;;;9.93;62.58;101642.94;5073750;28;45480;-80
2022/04/28 04:56:46;;;;;;;;;23.50;20.00;;;;;10.19;61.73;101631.44;5077931;27;45377;-80
2022/04/28 04:59:11;;;;;;;;;26.25;22.00;;;;;10.60;60.68;101643.72;5076832;27;45440;-79
2022/04/28 05:01:37;;;;;;;;;19.25;15.00;;;;;10.96;59.64;101637.41;5076612;28;45909;-78
2022/04/28 05:04:03;;;;;;;;;34.00;25.75;;;;;11.33;58.67;101653.06;5075646;28;45426;-80
2022/04/28 05:06:28;;;;;;;;;32.25;24.75;;;;;11.64;57.06;101636.09;5075300;27;45398;-78
2022/04/28 05:08:53;;;;;;;;;24.25;23.00;;;;;11.93;56.38;101642.97;5075380;27;45394;-79
2022/04/28 05:11:21;;;;;;;;;26.75;24.75;;;;;12.33;55.49;101648.78;5074859;27;45421;-79
2022/04/28 05:13:46;;;;;;;;;29.75;21.25;;;;;12.74;54.54;101654.53;5075158;27;45346;-79
2022/04/28 05:16:12;;;;;;;;;27.50;25.75;;;;;13.14;52.91;101643.38;5075583;27;45489;-80
2022/04/28 05:18:38;;;;;;;;;29.25;24.00;;;;;13.53;52.02;101648.16;5075127;27;45484;-80
2022/04/28 05:21:03;;;;;;;;;28.00;23.25;;;;;13.83;51.04;101650.34;5074587;27;45524;-80
2022/04/28 05:23:29;;;;;;;;;35.75;28.50;;;;;14.12;49.89;101653.38;5074896;27;45411;-79
2022/04/28 05:25:54;;;;;;;;;31.25;28.25;;;;;14.36;49.79;101655.63;5075006;28;45481;-80
2022/04/28 05:28:19;;;;;;;;;35.25;25.25;;;;;14.78;48.57;101651.31;5079428;27;45337;-79
2022/04/28 05:30:46;;;;;;;;;26.25;25.50;;;;;15.19;47.90;101657.53;5077326;27;45548;-79
2022/04/28 05:33:12;;;;;;;;;28.75;22.75;;;;;15.57;47.30;101669.09;5075935;28;45322;-79
2022/04/28 05:35:40;;;;;;;;;25.50;25.50;;;;;16.07;45.88;101669.66;5075132;27;45566;-79
2022/04/28 05:38:07;;;;;;;;;24.25;22.50;;;;;16.42;44.72;101664.34;5075032;27;45584;-80
2022/04/28 05:40:33;;;;;;;;;31.25;25.50;;;;;16.75;43.99;101670.53;5074440;28;46428;-78
2022/04/28 05:45:42;;;;;;;;;36.50;28.25;;;;;17.61;42.29;101669.72;5075291;28;45429;-80
2022/04/28 05:48:12;;;;;;;;;29.25;28.25;;;;;17.86;41.69;101671.63;5074915;27;45596;-79
2022/04/28 05:50:38;;;;;;;;;26.25;22.00;;;;;18.18;41.10;101667.88;5074780;27;46196;-78
2022/04/28 05:53:03;;;;;;;;;21.75;16.50;;;;;18.45;40.27;101662.50;5074545;27;45405;-79
2022/04/28 05:55:29;;;;;;;;;32.75;28.50;;;;;18.58;39.80;101669.13;5074371;27;45406;-79
2022/04/28 05:57:58;;;;;;;;;30.00;27.25;;;;;18.78;39.38;101672.88;5077579;27;45450;-79
2022/04/28 06:00:24;;;;;;;;;32.50;24.50;;;;;18.98;38.96;101673.06;5077797;27;45499;-80
2022/04/28 06:02:50;;;;;;;;;35.00;25.75;;;;;19.41;38.29;101680.38;5075791;27;45414;-80
2022/04/28 06:05:15;;;;;;;;;34.50;27.25;;;;;19.81;37.51;101660.00;5074859;27;45314;-79
2022/04/28 06:07:40;;;;;;;;;33.50;27.50;;;;;20.09;36.82;101674.91;5074179;27;45516;-79
2022/04/28 06:10:06;;;;;;;;;35.00;30.50;;;;;20.08;36.79;101683.91;5073071;27;46042;-78
2022/04/28 06:12:32;;;;;;;;;31.50;27.00;;;;;20.27;36.44;101675.94;5077094;27;45397;-79
2022/04/28 06:14:57;;;;;;;;;30.75;27.50;;;;;20.47;35.84;101677.78;5077766;27;45371;-78
2022/04/28 06:17:22;;;;;;;;;28.75;27.50;;;;;20.39;36.12;101667.34;5076112;28;45411;-79
2022/04/28 06:19:48;;;;;;;;;32.00;25.50;;;;;20.59;35.77;101679.91;5076783;27;45369;-77
2022/04/28 06:22:13;;;;;;;;;32.25;25.25;;;;;21.06;35.15;101666.16;5076669;27;45473;-77
2022/04/28 06:24:39;;;;;;;;;43.75;33.75;;;;;21.11;34.53;101690.97;5076555;27;45457;-78
2022/04/28 06:27:05;;;;;;;;;32.25;27.00;;;;;21.40;34.51;101698.63;5077585;27;45420;-79
2022/04/28 06:29:30;;;;;;;;;32.75;31.00;;;;;21.67;33.97;101688.38;5076995;28;46935;-78
2022/04/28 06:31:56;;;;;;;;;31.00;25.50;;;;;21.92;33.33;101692.53;5078338;27;45659;-78
2022/04/28 06:34:22;;;;;;;;;32.00;30.50;;;;;22.29;33.14;101682.56;5077081;27;45472;-76
2022/04/28 06:36:47;;;;;;;;;26.00;20.00;;;;;22.69;32.69;101693.97;5077528;27;45397;-77
2022/04/28 06:39:13;;;;;;;;;32.75;28.50;;;;;22.55;31.85;101683.94;5076394;27;46358;-77
2022/04/28 06:41:39;;;;;;;;;25.75;23.75;;;;;22.71;32.06;101690.25;5076789;27;45377;-78
2022/04/28 06:44:04;;;;;;;;;35.00;29.25;;;;;22.98;31.94;101700.47;5076729;27;45418;-76
2022/04/28 06:46:30;;;;;;;;;32.75;26.25;;;;;23.06;31.99;101694.66;5076739;27;45307;-77
2022/04/28 06:48:55;;;;;;;;;31.50;30.50;;;;;23.35;31.42;101694.88;5076286;27;46338;-78
2022/04/28 06:51:20;;;;;;;;;31.25;28.50;;;;;23.62;30.51;101695.16;5077093;27;45515;-78
2022/04/28 06:53:46;;;;;;;;;36.25;29.00;;;;;23.56;30.78;101695.50;5076458;27;45533;-76
2022/04/28 06:56:11;;;;;;;;;28.25;26.50;;;;;23.69;30.25;101696.53;5076293;27;45444;-77
2022/04/28 06:58:37;;;;;;;;;25.25;23.00;;;;;23.44;31.15;101696.22;5077145;27;46456;-76
2022/04/28 07:01:03;;;;;;;;;32.75;29.25;;;;;23.68;30.17;101700.19;5076422;27;45538;-77
2022/04/28 07:03:28;;;;;;;;;26.25;21.75;;;;;23.83;30.16;101709.22;5076748;27;45378;-78
2022/04/28 07:05:54;;;;;;;;;37.00;32.50;;;;;23.91;29.95;101700.72;5077055;27;45597;-78
2022/04/28 07:08:19;;;;;;;;;38.50;30.50;;;;;23.97;30.38;101704.88;5076396;27;46096;-78
2022/04/28 07:10:45;;;;;;;;;34.25;27.50;;;;;24.37;29.68;101708.78;5076001;28;45402;-77
2022/04/28 07:13:10;;;;;;;;;34.50;28.75;;;;;24.51;29.67;101710.66;5076498;27;45469;-77
2022/04/28 07:15:38;;;;;;;;;32.00;29.50;;;;;24.53;29.29;101710.56;5076170;28;45468;-77
2022/04/28 07:18:04;;;;;;;;;37.00;31.00;;;;;24.69;28.75;101718.59;5076023;27;47122;-78
2022/04/28 07:20:34;;;;;;;;;23.50;19.00;;;;;24.51;29.21;101713.34;5075053;28;45401;-77
2022/04/28 07:23:00;;;;;;;;;34.00;29.50;;;;;24.48;29.65;101710.84;5076308;27;45470;-78
2022/04/28 07:25:26;;;;;;;;;37.25;25.50;;;;;24.25;29.29;101705.00;5076197;28;45483;-77
2022/04/28 07:27:52;;;;;;;;;33.50;28.00;;;;;24.52;29.58;101716.91;5076739;27;46256;-77
2022/04/28 07:30:18;;;;;;;;;33.00;30.25;;;;;24.89;28.59;101715.53;5076721;28;45379;-78
2022/04/28 07:32:44;;;;;;;;;31.25;25.50;;;;;25.40;28.60;101708.75;5077858;27;45527;-80
2022/04/28 07:35:09;;;;;;;;;30.75;25.00;;;;;25.73;27.93;101702.13;5077475;27;45577;-79
2022/04/28 07:37:34;;;;;;;;;38.25;32.25;;;;;26.02;27.67;101711.88;5077135;27;45309;-79
2022/04/28 07:40:00;;;;;;;;;40.75;30.25;;;;;26.31;27.32;101710.88;5077118;27;45307;-80
2022/04/28 07:42:25;;;;;;;;;26.75;24.50;;;;;26.38;27.36;101704.91;5077186;27;45492;-80
2022/04/28 07:44:51;;;;;;;;;29.25;27.50;;;;;26.80;26.75;101706.59;5075147;28;47982;-80
2022/04/28 07:47:17;;;;;;;;;33.25;30.00;;;;;26.72;26.72;101710.72;5076342;27;46365;-80
2022/04/28 07:49:42;;;;;;;;;34.00;29.75;;;;;27.02;26.33;101712.22;5075911;27;45421;-79
2022/04/28 07:52:07;;;;;;;;;25.00;22.75;;;;;27.05;25.88;101705.72;5065634;27;45835;-81
2022/04/28 07:54:33;;;;;;;;;32.25;26.25;;;;;26.76;26.31;101717.66;5055852;28;45457;-79
2022/04/28 07:56:58;;;;;;;;;20.25;17.75;;;;;26.64;26.17;101712.22;5054790;28;47312;-80
2022/04/28 07:59:23;;;;;;;;;20.00;19.00;;;;;26.64;26.32;101713.06;5058933;28;45487;-79
2022/04/28 08:01:49;;;;;;;;;25.25;19.50;;;;;26.95;26.31;101716.34;5061343;28;45338;-80
2022/04/28 08:04:14;;;;;;;;;33.50;28.75;;;;;27.11;25.84;101722.38;5060626;28;45514;-79
2022/04/28 08:06:40;;;;;;;;;25.75;23.25;;;;;27.35;25.66;101718.91;5059534;28;46365;-78
2022/04/28 08:09:05;;;;;;;;;27.75;24.75;;;;;27.40;25.56;101722.16;5057302;28;45414;-79
2022/04/28 08:11:31;;;;;;;;;31.25;27.25;;;;;27.21;25.42;101738.00;5056304;28;45507;-79
2022/04/28 08:13:56;;;;;;;;;23.25;19.50;;;;;26.31;26.41;101722.56;5057013;28;45350;-78
2022/04/28 08:16:22;;;;;;;;;30.25;29.00;;;;;25.80;26.96;101734.09;5056052;28;46246;-78
2022/04/28 08:18:47;;;;;;;;;25.00;23.50;;;;;25.40;28.10;101735.81;5055843;28;45461;-79
2022/04/28 08:21:12;;;;;;;;;26.50;23.50;;;;;25.66;27.85;101721.47;5056356;28;45387;-79
2022/04/28 08:23:38;;;;;;;;;33.00;29.50;;;;;25.65;28.34;101719.72;5055461;28;45426;-79
2022/04/28 08:26:04;;;;;;;;;31.00;24.25;;;;;25.70;27.60;101728.41;5055271;28;45926;-79
2022/04/28 08:28:29;;;;;;;;;31.00;27.00;;;;;25.62;28.25;101733.47;5057367;28;45291;-79
2022/04/28 08:30:55;;;;;;;;;24.25;23.75;;;;;25.83;27.64;101727.59;5058249;28;45512;-79
2022/04/28 08:33:20;;;;;;;;;27.00;24.25;;;;;25.77;27.46;101741.56;5057360;28;45586;-80
2022/04/28 08:35:46;;;;;;;;;22.75;22.25;;;;;26.21;28.00;101737.72;5057134;28;45923;-78
2022/04/28 08:38:11;;;;;;;;;24.00;22.25;;;;;26.88;26.60;101721.34;5056166;28;45354;-80
2022/04/28 08:40:37;;;;;;;;;25.00;25.00;;;;;27.47;26.30;101736.16;5059981;28;45402;-80
2022/04/28 08:43:04;;;;;;;;;24.75;22.00;;;;;27.53;25.31;101732.09;5076847;27;45602;-80
2022/04/28 08:45:37;;;;;;;;;20.50;20.00;;;;;26.63;26.16;101738.44;5076222;27;45639;-80
2022/04/28 08:48:03;;;;;;;;;21.00;16.25;;;;;26.37;26.29;101743.84;5075874;27;45495;-79
2022/04/28 08:50:29;;;;;;;;;20.25;20.25;;;;;26.36;26.69;101731.25;5076157;27;45425;-79
2022/04/28 08:52:55;;;;;;;;;25.75;22.00;;;;;26.48;26.41;101728.66;5076269;27;45469;-78
2022/04/28 08:55:21;;;;;;;;;20.25;16.50;;;;;25.99;26.66;101739.16;5073141;28;46749;-78
2022/04/28 08:57:46;;;;;;;;;22.25;21.50;;;;;25.20;27.42;101735.22;5075287;27;45411;-78
2022/04/28 09:00:12;;;;;;;;;25.25;23.50;;;;;24.62;28.14;101743.31;5074956;27;45326;-77
2022/04/28 09:02:39;;;;;;;;;23.75;21.75;;;;;24.46;29.05;101735.25;5075558;27;45365;-76
2022/04/28 09:05:07;;;;;;;;;19.25;17.00;;;;;24.17;29.32;101744.22;5075337;27;46363;-78
2022/04/28 09:07:38;;;;;;;;;21.75;18.00;;;;;23.84;29.47;101764.97;5075451;27;45516;-79
2022/04/28 09:10:35;;;;;;;;;26.00;18.75;;;;;23.06;30.88;101729.69;5076184;28;45473;-78
2022/04/28 09:15:54;;;;;;;;;17.25;13.75;;;;;23.78;29.96;101732.94;5052235;28;45889;-77
2022/04/28 09:18:21;;;;;;;;;20.00;17.00;;;;;23.67;29.85;101725.44;5051404;28;45636;-77
2022/04/28 09:20:48;;;;;;;;;23.25;21.25;;;;;23.34;30.39;101733.63;5052685;28;45508;-78
2022/04/28 09:23:14;;;;;;;;;21.50;20.25;;;;;22.70;30.84;101707.34;5052349;28;45488;-78
2022/04/28 09:25:41;;;;;;;;;25.75;19.50;;;;;22.39;31.65;101726.94;5051345;28;45533;-77
2022/04/28 09:28:10;;;;;;;;;18.25;16.25;;;;;22.24;32.01;101719.63;5051761;28;45437;-78
2022/04/28 09:30:42;;;;;;;;;23.50;21.25;;;;;22.76;31.92;101714.25;5052966;28;45495;-77
2022/04/28 09:33:12;;;;;;;;;20.00;17.00;;;;;22.81;31.41;101714.88;5052671;28;45371;-77
2022/04/28 09:35:51;;;;;;;;;16.25;14.00;;;;;22.80;31.36;101715.81;5052464;28;45558;-78
2022/04/28 09:38:18;;;;;;;;;8.25;8.25;;;;;22.84;31.29;101709.31;5051814;28;45537;-76
2022/04/28 09:43:30;;;;;;;;;12.00;12.00;;;;;22.53;31.34;101737.00;5051515;28;45541;-78
2022/04/28 09:45:57;;;;;;;;;22.50;19.00;;;;;22.48;31.30;101723.78;5051816;28;46648;-77
2022/04/28 09:48:24;;;;;;;;;23.50;18.25;;;;;22.45;31.61;101739.22;5063609;28;45503;-77
2022/04/28 09:50:50;;;;;;;;;23.25;21.25;;;;;22.58;31.67;101709.81;5078253;27;45376;-77
2022/04/28 09:53:16;;;;;;;;;24.75;20.75;;;;;23.04;31.22;101715.44;5078617;27;45410;-81
2022/04/28 09:55:44;;;;;;;;;13.00;12.25;;;;;23.05;30.81;101707.28;5077074;28;46394;-80
2022/04/28 09:58:11;;;;;;;;;15.00;15.00;;;;;23.00;31.05;101713.88;5077848;28;45391;-80
2022/04/28 10:00:37;;;;;;;;;19.50;17.00;;;;;22.83;31.16;101707.56;5081422;27;45279;-80
2022/04/28 10:03:03;;;;;;;;;19.50;17.50;;;;;22.61;31.49;101712.34;5082674;27;45473;-79
2022/04/28 10:05:29;;;;;;;;;6.00;5.00;;;;;22.64;31.39;101715.78;5079652;27;46815;-81
2022/04/28 10:07:56;;;;;;;;;22.50;20.25;;;;;22.77;31.11;101705.19;5079256;27;45507;-80
2022/04/28 10:10:24;;;;;;;;;20.00;18.25;;;;;22.78;31.46;101701.56;5077901;27;45443;-81
2022/04/28 10:12:50;;;;;;;;;20.25;18.75;;;;;22.88;31.07;101693.84;5077911;28;45305;-79
2022/04/28 10:15:16;;;;;;;;;21.00;19.50;;;;;22.85;30.69;101707.47;5078634;27;45950;-80
2022/04/28 10:17:54;;;;;;;;;20.25;17.00;;;;;22.89;30.93;101701.84;5078477;27;45439;-80
2022/04/28 10:20:28;;;;;;;;;18.00;16.00;;;;;23.29;30.09;101709.63;5078489;27;45480;-81
2022/04/28 10:22:56;;;;;;;;;15.75;13.00;;;;;23.15;30.42;101702.25;5077907;27;45623;-80
2022/04/28 10:33:48;;;;;;;;;17.25;14.75;;;;;24.32;28.79;101688.41;5080389;28;45389;-81
2022/04/28 10:36:19;;;;;;;;;13.00;12.00;;;;;24.58;28.08;101684.13;5078626;27;46127;-79
2022/04/28 10:39:04;;;;;;;;;13.25;10.00;;;;;24.04;27.45;101700.88;5079781;27;45359;-81
2022/04/28 10:41:30;;;;;;;;;9.50;9.50;;;;;23.45;28.82;101666.44;5078488;27;45500;-80
2022/04/28 10:43:58;;;;;;;;;11.50;10.25;;;;;23.11;29.36;101679.16;5082330;27;45400;-80
2022/04/28 10:46:27;;;;;;;;;10.75;10.75;;;;;23.43;29.87;101684.56;5078427;27;45430;-80
2022/04/28 10:48:55;;;;;;;;;9.75;8.75;;;;;23.77;29.41;101671.81;5078400;28;45417;-78
2022/04/28 10:51:29;;;;;;;;;13.00;10.00;;;;;23.91;28.56;101677.31;5075707;28;45470;-79
2022/04/28 10:54:11;;;;;;;;;9.75;9.00;;;;;24.04;28.27;101672.03;5077612;27;45345;-80
2022/04/28 10:56:40;;;;;;;;;10.75;10.50;;;;;24.25;28.14;101677.13;5077447;27;45590;-80
2022/04/28 10:59:32;;;;;;;;;22.75;19.00;;;;;23.75;28.34;101679.13;5077623;28;45393;-81
2022/04/28 11:02:18;;;;;;;;;15.50;10.00;;;;;23.17;27.66;101673.41;5079689;28;45417;-80
2022/04/28 11:04:52;;;;;;;;;6.00;6.00;;;;;23.15;28.16;101672.59;5080956;27;45456;-81
2022/04/28 11:07:21;;;;;;;;;9.75;9.00;;;;;23.21;27.69;101664.16;5094772;27;47213;-80
2022/04/28 11:09:57;;;;;;;;;5.00;5.00;;;;;23.33;26.70;101677.94;5077219;27;45520;-80
2022/04/28 11:12:24;;;;;;;;;5.50;5.50;;;;;23.49;26.29;101657.22;5078442;27;45512;-79
2022/04/28 11:15:05;;;;;;;;;8.50;8.50;;;;;23.54;25.75;101676.72;5078093;27;45480;-81
2022/04/28 11:17:36;;;;;;;;;6.75;6.25;;;;;23.41;25.67;101663.06;5072353;27;46596;-80
2022/04/28 11:20:07;;;;;;;;;6.00;5.00;;;;;23.69;26.07;101664.16;5058203;28;45327;-80
2022/04/28 11:22:32;;;;;;;;;6.00;6.00;;;;;24.14;25.72;101658.84;5057940;28;45460;-81
2022/04/28 11:24:59;;;;;;;;;8.50;7.00;;;;;24.56;25.06;101670.69;5056664;28;45389;-80
2022/04/28 11:27:29;;;;;;;;;6.00;5.00;;;;;24.85;24.49;101670.75;5057122;28;45319;-81
2022/04/28 11:29:57;;;;;;;;;9.25;9.25;;;;;24.95;24.57;101673.75;5057156;28;45573;-80
2022/04/28 11:32:22;;;;;;;;;5.50;3.00;;;;;25.06;25.08;101670.34;5041471;28;45375;-81
2022/04/28 11:34:50;;;;;;;;;9.50;7.00;;;;;24.71;24.35;101679.72;5060109;28;45591;-79
2022/04/28 11:37:17;;;;;;;;;10.00;8.50;;;;;24.26;24.70;101679.72;5059195;28;45469;-80